Time;durP1;ratioP1;P1;durP2;ratioP2;P2;SDS_P1;SDS_P2;PMS_P1;PMS_P2;Temp;Humidity;BMP_temperature;BMP_pressure;BME280_temperature;BME280_humidity;BME280_pressure;Samples;Min_cycle;Max_cycle;Signal;HPM_P1;HPM_P2
2022/02/19 00:01:38;;;;;;;32.23;13.87;;;3.30;99.90;;;;;;4226225;28;21622;-56
2022/02/19 00:03:40;;;;;;;37.47;15.77;;;3.30;99.90;;;;;;4224169;28;20292;-56
2022/02/19 00:05:41;;;;;;;42.37;16.07;;;3.20;99.90;;;;;;4226737;28;20831;-56
2022/02/19 00:07:42;;;;;;;28.83;15.13;;;3.20;99.90;;;;;;4224535;28;20272;-58
2022/02/19 00:09:43;;;;;;;32.43;14.03;;;3.10;99.90;;;;;;4226663;28;20815;-56
2022/02/19 00:11:44;;;;;;;21.67;9.37;;;3.00;99.90;;;;;;4224379;28;20326;-55
2022/02/19 00:13:45;;;;;;;25.00;9.97;;;3.00;99.90;;;;;;4222030;28;20796;-57
2022/02/19 00:15:47;;;;;;;19.37;7.67;;;3.00;99.90;;;;;;4224124;28;20288;-55
2022/02/19 00:17:48;;;;;;;17.83;7.87;;;2.90;99.90;;;;;;4226226;28;20264;-61
2022/02/19 00:19:50;;;;;;;10.07;4.77;;;3.00;99.90;;;;;;4223843;28;20338;-55
2022/02/19 00:21:51;;;;;;;16.83;7.13;;;3.00;99.90;;;;;;4225619;28;20601;-58
2022/02/19 00:23:53;;;;;;;14.97;6.37;;;3.10;99.90;;;;;;4224513;28;20340;-56
2022/02/19 00:25:54;;;;;;;18.53;7.67;;;3.10;99.90;;;;;;4225115;28;20340;-55
2022/02/19 00:27:56;;;;;;;16.87;7.40;;;3.00;99.90;;;;;;4220853;28;20306;-71
2022/02/19 00:29:57;;;;;;;23.13;7.40;;;3.10;99.90;;;;;;4208148;28;20651;-62
2022/02/19 00:31:58;;;;;;;23.83;8.77;;;3.00;99.90;;;;;;4208634;28;20345;-55
2022/02/19 00:33:59;;;;;;;23.20;9.83;;;3.00;99.90;;;;;;4207285;28;20765;-57
2022/02/19 00:36:01;;;;;;;23.03;10.90;;;2.90;99.90;;;;;;4216193;28;21359;-57
2022/02/19 00:38:02;;;;;;;21.93;12.03;;;2.90;99.90;;;;;;4224110;28;20690;-57
2022/02/19 00:40:04;;;;;;;29.63;12.60;;;2.80;99.90;;;;;;4225821;28;20284;-56
2022/02/19 00:42:05;;;;;;;22.27;9.30;;;2.80;99.90;;;;;;4223844;28;20817;-59
2022/02/19 00:44:07;;;;;;;23.77;9.90;;;2.70;99.90;;;;;;4225559;28;20300;-57
2022/02/19 00:46:09;;;;;;;19.40;8.97;;;2.70;99.90;;;;;;4223785;28;20686;-57
2022/02/19 00:48:10;;;;;;;25.60;9.87;;;2.70;99.90;;;;;;4225635;28;20264;-55
2022/02/19 00:50:11;;;;;;;29.10;13.27;;;2.70;99.90;;;;;;4223421;28;20696;-58
2022/02/19 00:52:12;;;;;;;36.53;14.47;;;2.80;99.90;;;;;;4225247;28;20317;-60
2022/02/19 00:54:13;;;;;;;34.43;15.97;;;2.70;99.90;;;;;;4224384;28;20267;-58
2022/02/19 00:56:14;;;;;;;37.70;15.00;;;2.70;99.90;;;;;;4224469;28;20324;-54
2022/02/19 00:58:15;;;;;;;38.30;16.67;;;2.60;99.90;;;;;;4223458;28;20256;-55
2022/02/19 01:00:17;;;;;;;37.90;17.43;;;2.60;99.90;;;;;;4219731;28;20748;-56
2022/02/19 01:02:18;;;;;;;35.80;16.30;;;2.50;99.90;;;;;;4207912;28;20302;-58
2022/02/19 01:04:19;;;;;;;32.13;14.23;;;2.50;99.90;;;;;;4206982;28;20285;-52
2022/02/19 01:06:21;;;;;;;34.53;14.13;;;2.50;99.90;;;;;;4218240;28;20268;-58
2022/02/19 01:08:22;;;;;;;36.33;14.43;;;2.40;99.90;;;;;;4221586;28;20799;-54
2022/02/19 01:10:23;;;;;;;39.13;15.77;;;2.40;99.90;;;;;;4225602;28;20264;-54
2022/02/19 01:12:24;;;;;;;19.37;8.53;;;2.50;99.90;;;;;;4223764;28;20256;-53
2022/02/19 01:14:26;;;;;;;13.23;6.33;;;2.50;99.90;;;;;;4225384;28;20333;-65
2022/02/19 01:16:27;;;;;;;14.70;5.63;;;2.60;99.90;;;;;;4223721;28;20268;-68
2022/02/19 01:18:28;;;;;;;12.33;4.83;;;2.60;99.90;;;;;;4224846;28;20289;-57
2022/02/19 01:20:29;;;;;;;16.17;5.70;;;2.60;99.90;;;;;;4222494;28;20283;-55
2022/02/19 01:22:30;;;;;;;18.60;6.60;;;2.50;99.90;;;;;;4224182;28;20332;-72
2022/02/19 01:24:32;;;;;;;21.13;7.53;;;2.50;99.90;;;;;;4223550;28;20345;-53
2022/02/19 01:26:33;;;;;;;19.50;7.60;;;2.40;99.90;;;;;;4224198;28;20275;-55
2022/02/19 01:28:34;;;;;;;20.57;8.53;;;2.30;99.90;;;;;;4214272;28;20488;-72
2022/02/19 01:30:35;;;;;;;20.57;11.33;;;2.30;99.90;;;;;;4206943;28;20351;-70
2022/02/19 01:32:37;;;;;;;26.87;11.40;;;2.30;99.90;;;;;;4207314;28;20272;-53
2022/02/19 01:34:38;;;;;;;21.23;9.30;;;2.20;99.90;;;;;;4206180;28;20268;-55
2022/02/19 01:36:39;;;;;;;30.13;12.10;;;2.20;99.90;;;;;;4208374;28;20269;-55
2022/02/19 01:38:41;;;;;;;26.73;11.57;;;2.30;99.90;;;;;;4216719;28;20353;-69
2022/02/19 01:40:42;;;;;;;37.03;15.50;;;2.30;99.90;;;;;;4225257;28;20273;-56
2022/02/19 01:42:43;;;;;;;32.00;15.47;;;2.30;99.90;;;;;;4222988;27;20321;-55
2022/02/19 01:44:46;;;;;;;40.97;18.57;;;2.30;99.90;;;;;;4224923;28;20260;-57
2022/02/19 01:46:47;;;;;;;48.20;16.93;;;2.40;99.90;;;;;;4222399;28;20268;-54
2022/02/19 01:48:48;;;;;;;31.47;15.37;;;2.30;99.90;;;;;;4224854;28;20260;-56
2022/02/19 01:50:50;;;;;;;45.70;15.93;;;2.30;99.90;;;;;;4208912;28;20752;-62
2022/02/19 01:52:51;;;;;;;34.10;14.57;;;2.30;99.90;;;;;;4208563;28;20253;-53
2022/02/19 01:54:53;;;;;;;28.97;13.30;;;2.30;99.90;;;;;;4206837;28;20306;-56
2022/02/19 01:56:54;;;;;;;20.50;9.17;;;2.20;99.90;;;;;;4208036;28;20272;-53
2022/02/19 01:58:56;;;;;;;26.13;10.37;;;2.20;99.90;;;;;;4206800;28;20260;-57
2022/02/19 02:00:57;;;;;;;12.83;6.27;;;2.30;99.90;;;;;;4206966;28;21103;-52
2022/02/19 02:02:59;;;;;;;13.57;5.70;;;2.30;99.90;;;;;;4207180;28;20276;-65
2022/02/19 02:05:00;;;;;;;11.87;5.50;;;2.30;99.90;;;;;;4205914;28;20260;-56
2022/02/19 02:07:03;;;;;;;10.47;5.60;;;2.30;99.90;;;;;;4207575;28;20257;-56
2022/02/19 02:09:04;;;;;;;18.47;6.57;;;2.40;99.90;;;;;;4205815;28;20280;-54
2022/02/19 02:11:06;;;;;;;13.47;6.67;;;2.40;99.90;;;;;;4207717;28;20643;-53
2022/02/19 02:13:07;;;;;;;16.73;6.07;;;2.30;99.90;;;;;;4205536;28;20273;-50
2022/02/19 02:15:26;;;;;;;21.40;8.47;;;2.30;99.90;;;;;;4207702;28;20326;-72
2022/02/19 02:17:27;;;;;;;27.43;10.10;;;2.30;99.90;;;;;;4208151;28;21200;-56
2022/02/19 02:19:28;;;;;;;24.93;9.20;;;2.30;99.90;;;;;;4223927;28;20268;-55
2022/02/19 02:21:29;;;;;;;22.93;10.43;;;2.30;99.90;;;;;;4222805;28;20823;-55
2022/02/19 02:23:31;;;;;;;23.87;11.60;;;2.20;99.90;;;;;;4224259;28;20287;-53
2022/02/19 02:25:33;;;;;;;26.13;13.10;;;2.20;99.90;;;;;;4222749;28;20252;-56
2022/02/19 02:27:34;;;;;;;34.37;14.37;;;2.20;99.90;;;;;;4216216;28;21209;-56
2022/02/19 02:29:44;;;;;;;28.53;12.47;;;2.20;99.90;;;;;;4205257;28;20745;-58
2022/02/19 02:31:46;;;;;;;28.67;11.60;;;2.10;99.90;;;;;;4207375;28;20269;-57
2022/02/19 02:33:49;;;;;;;21.67;8.17;;;2.10;99.90;;;;;;4205775;28;20827;-59
2022/02/19 02:35:51;;;;;;;16.90;7.23;;;2.00;99.90;;;;;;4206370;28;20338;-56
2022/02/19 02:37:52;;;;;;;15.23;6.77;;;2.00;99.90;;;;;;4206483;28;20249;-66
2022/02/19 02:39:54;;;;;;;26.00;9.27;;;1.90;99.90;;;;;;4205555;28;20299;-56
2022/02/19 02:41:55;;;;;;;15.77;6.93;;;1.90;99.90;;;;;;4206527;28;20281;-55
2022/02/19 02:43:56;;;;;;;19.10;7.33;;;1.70;99.90;;;;;;4206739;28;20769;-67
2022/02/19 02:45:57;;;;;;;15.30;6.47;;;1.70;99.90;;;;;;4206211;28;20337;-56
2022/02/19 02:47:59;;;;;;;16.20;6.90;;;1.60;99.90;;;;;;4205033;28;20272;-53
2022/02/19 02:50:00;;;;;;;17.90;5.87;;;1.60;99.90;;;;;;4206791;28;20281;-55
2022/02/19 02:52:01;;;;;;;13.27;5.80;;;1.50;99.90;;;;;;4204986;28;20326;-55
2022/02/19 02:54:02;;;;;;;18.77;7.00;;;1.50;99.90;;;;;;4206610;28;20318;-57
2022/02/19 02:56:04;;;;;;;16.40;7.00;;;1.50;99.90;;;;;;4205674;28;20310;-57
2022/02/19 02:58:05;;;;;;;18.63;8.37;;;1.50;99.90;;;;;;4206928;28;20256;-53
2022/02/19 03:00:09;;;;;;;25.97;7.60;;;1.50;99.90;;;;;;4204976;28;20265;-53
2022/02/19 03:02:10;;;;;;;16.93;7.50;;;1.50;99.90;;;;;;4215998;28;20751;-56
2022/02/19 03:04:13;;;;;;;16.77;6.73;;;1.50;99.90;;;;;;4222231;28;20296;-56
2022/02/19 03:06:14;;;;;;;15.60;6.83;;;1.50;99.90;;;;;;4222592;28;21126;-56
2022/02/19 03:08:15;;;;;;;17.03;6.40;;;1.50;99.90;;;;;;4213538;28;20309;-61
2022/02/19 03:10:18;;;;;;;14.87;5.63;;;1.50;99.90;;;;;;4205924;28;20667;-55
2022/02/19 03:12:19;;;;;;;17.17;6.47;;;1.40;99.90;;;;;;4205798;28;20256;-57
2022/02/19 03:14:20;;;;;;;12.47;5.33;;;1.40;99.90;;;;;;4205312;28;20298;-57
2022/02/19 03:16:21;;;;;;;11.90;5.97;;;1.40;99.90;;;;;;4206513;28;20261;-56
2022/02/19 03:18:22;;;;;;;7.33;4.13;;;1.30;99.90;;;;;;4204938;28;20253;-56
2022/02/19 03:20:24;;;;;;;13.07;4.70;;;1.40;99.90;;;;;;4206882;28;20245;-56
2022/02/19 03:22:25;;;;;;;18.07;5.30;;;1.40;99.90;;;;;;4204270;28;20288;-52
2022/02/19 03:24:26;;;;;;;14.87;5.10;;;1.40;99.90;;;;;;4206473;28;20357;-56
2022/02/19 03:26:27;;;;;;;12.63;4.60;;;1.50;99.90;;;;;;4204880;28;20859;-55
2022/02/19 03:28:29;;;;;;;12.33;4.87;;;1.50;99.90;;;;;;4206296;28;20261;-50
2022/02/19 03:30:30;;;;;;;13.50;5.60;;;1.50;99.90;;;;;;4205227;28;20314;-58
2022/02/19 03:32:31;;;;;;;12.20;4.60;;;1.50;99.90;;;;;;4206559;28;20314;-57
2022/02/19 03:34:32;;;;;;;11.10;5.20;;;1.50;99.90;;;;;;4204833;28;20249;-56
2022/02/19 03:36:36;;;;;;;12.40;5.00;;;1.50;99.90;;;;;;4219127;28;20272;-57
2022/02/19 03:38:37;;;;;;;14.97;5.80;;;1.50;99.90;;;;;;4208744;28;20265;-65
2022/02/19 03:40:38;;;;;;;12.20;5.10;;;1.50;99.90;;;;;;4205167;28;20265;-51
2022/02/19 03:42:41;;;;;;;14.13;5.80;;;1.50;99.90;;;;;;4204927;28;20594;-60
2022/02/19 03:44:42;;;;;;;18.00;5.83;;;1.50;99.90;;;;;;4205401;28;20288;-56
2022/02/19 03:46:43;;;;;;;16.00;5.93;;;1.50;99.90;;;;;;4206053;28;20269;-53
2022/02/19 03:48:44;;;;;;;16.53;5.47;;;1.40;99.90;;;;;;4204571;28;20737;-52
2022/02/19 03:50:45;;;;;;;20.37;6.03;;;1.50;99.90;;;;;;4206760;28;20330;-54
2022/02/19 03:52:47;;;;;;;14.20;6.03;;;1.50;99.90;;;;;;4204151;28;20764;-53
2022/02/19 03:54:48;;;;;;;21.30;7.13;;;1.50;99.90;;;;;;4206665;28;20260;-54
2022/02/19 03:56:49;;;;;;;17.30;7.17;;;1.40;99.90;;;;;;4203618;28;20707;-54
2022/02/19 03:58:50;;;;;;;26.23;8.87;;;1.40;99.90;;;;;;4205739;28;20602;-54
2022/02/19 04:00:51;;;;;;;23.57;9.17;;;1.40;99.90;;;;;;4204877;28;20322;-59
2022/02/19 04:02:53;;;;;;;15.13;6.33;;;1.40;99.90;;;;;;4206024;28;20756;-54
2022/02/19 04:04:54;;;;;;;14.23;5.93;;;1.30;99.90;;;;;;4204506;28;20288;-69
2022/02/19 04:06:55;;;;;;;16.17;7.13;;;1.30;99.90;;;;;;4205447;28;20828;-56
2022/02/19 04:08:56;;;;;;;12.50;5.90;;;1.30;99.90;;;;;;4204605;28;20338;-61
2022/02/19 04:10:58;;;;;;;13.00;6.57;;;1.30;99.90;;;;;;4205805;28;20742;-56
2022/02/19 04:12:59;;;;;;;16.33;6.43;;;1.30;99.90;;;;;;4205387;28;20322;-57
2022/02/19 04:15:00;;;;;;;13.57;6.37;;;1.30;99.90;;;;;;4205457;28;20268;-54
2022/02/19 04:17:01;;;;;;;15.00;6.60;;;1.30;99.90;;;;;;4206053;28;20323;-54
2022/02/19 04:19:02;;;;;;;16.13;7.20;;;1.20;99.90;;;;;;4204498;28;20652;-56
2022/02/19 04:21:07;;;;;;;19.27;7.07;;;1.20;99.90;;;;;;4206118;28;20269;-56
2022/02/19 04:23:08;;;;;;;16.03;7.77;;;1.20;99.90;;;;;;4204082;28;20265;-57
2022/02/19 04:25:10;;;;;;;17.97;6.87;;;1.20;99.90;;;;;;4207951;28;20666;-58
2022/02/19 04:27:11;;;;;;;20.33;7.57;;;1.20;99.90;;;;;;4221190;28;20753;-51
2022/02/19 04:29:12;;;;;;;21.43;7.97;;;1.10;99.90;;;;;;4222921;28;20272;-54
2022/02/19 04:31:13;;;;;;;20.93;8.43;;;1.10;99.90;;;;;;4221555;28;20264;-54
2022/02/19 04:33:14;;;;;;;21.63;8.67;;;1.10;99.90;;;;;;4222977;28;20280;-52
2022/02/19 04:35:17;;;;;;;19.10;8.53;;;1.10;99.90;;;;;;4220559;28;20670;-54
2022/02/19 04:37:18;;;;;;;17.20;7.50;;;1.00;99.90;;;;;;4222878;28;20268;-57
2022/02/19 04:39:20;;;;;;;14.40;7.43;;;1.10;99.90;;;;;;4220644;28;20317;-54
2022/02/19 04:41:22;;;;;;;18.50;6.63;;;1.10;99.90;;;;;;4224020;28;20264;-57
2022/02/19 04:43:24;;;;;;;17.67;6.97;;;1.10;99.90;;;;;;4222867;28;20268;-62
2022/02/19 04:45:26;;;;;;;13.33;5.70;;;1.10;99.90;;;;;;4225175;28;20276;-54
2022/02/19 04:47:28;;;;;;;13.00;5.60;;;1.20;99.90;;;;;;4215111;28;20663;-57
2022/02/19 04:49:29;;;;;;;13.47;5.77;;;1.20;99.90;;;;;;4224365;28;20276;-53
2022/02/19 04:51:30;;;;;;;19.37;7.33;;;1.20;99.90;;;;;;4225328;28;20268;-49
2022/02/19 04:53:32;;;;;;;19.07;6.70;;;1.20;99.90;;;;;;4223663;28;20314;-55
2022/02/19 04:55:34;;;;;;;15.80;6.20;;;1.20;99.90;;;;;;4225322;28;20276;-54
2022/02/19 04:57:36;;;;;;;14.60;5.97;;;1.20;99.90;;;;;;4223203;28;20280;-58
2022/02/19 04:59:37;;;;;;;22.07;7.90;;;1.20;99.90;;;;;;4225681;28;20252;-53
2022/02/19 05:01:39;;;;;;;14.10;6.43;;;1.30;99.90;;;;;;4223333;28;20329;-61
2022/02/19 05:03:40;;;;;;;20.23;7.27;;;1.20;99.90;;;;;;4225509;28;20313;-57
2022/02/19 05:05:41;;;;;;;29.47;13.13;;;1.30;99.90;;;;;;4223327;28;20270;-55
2022/02/19 05:07:43;;;;;;;43.73;16.43;;;1.30;99.90;;;;;;4225665;28;20793;-53
2022/02/19 05:09:44;;;;;;;18.83;8.17;;;1.30;99.90;;;;;;4223760;28;20309;-54
2022/02/19 05:11:45;;;;;;;20.67;8.87;;;1.20;99.90;;;;;;4224810;28;20964;-62
2022/02/19 05:13:46;;;;;;;18.40;8.27;;;1.20;99.90;;;;;;4223917;28;20267;-54
2022/02/19 05:15:48;;;;;;;15.40;7.73;;;1.20;99.90;;;;;;4224332;28;20275;-57
2022/02/19 05:17:51;;;;;;;66.77;22.87;;;1.20;99.90;;;;;;4223377;28;20332;-54
2022/02/19 05:19:52;;;;;;;17.87;8.67;;;1.20;99.90;;;;;;4223057;28;20285;-56
2022/02/19 05:21:54;;;;;;;15.60;7.00;;;1.10;99.90;;;;;;4225051;28;20264;-56
2022/02/19 05:23:55;;;;;;;35.50;13.23;;;1.10;99.90;;;;;;4220399;28;20346;-51
2022/02/19 05:25:58;;;;;;;36.40;14.07;;;1.10;99.90;;;;;;4208071;28;20822;-56
2022/02/19 05:27:59;;;;;;;39.47;12.90;;;1.10;99.90;;;;;;4206304;28;20272;-54
2022/02/19 05:32:11;;;;;;;;;;;1.10;99.90;;;;;;4411566;22;20305;-62
2022/02/19 05:34:12;;;;;;;;;;;1.10;99.90;;;;;;4179045;28;20012;-49
2022/02/19 05:36:13;;;;;;;;;;;1.20;99.90;;;;;;4201444;28;19914;-49
2022/02/19 05:38:14;;;;;;;27.73;10.77;;;1.20;99.90;;;;;;4207660;28;19931;-65
2022/02/19 05:40:15;;;;;;;25.60;10.43;;;1.50;99.90;;;;;;4200995;28;20028;-46
2022/02/19 05:42:16;;;;;;;34.63;12.10;;;1.70;99.90;;;;;;4190909;28;21176;-59
2022/02/19 05:44:17;;;;;;;28.87;14.30;;;2.00;99.90;;;;;;4191306;28;20844;-66
2022/02/19 05:46:19;;;;;;;35.20;13.57;;;2.30;99.90;;;;;;4193234;28;21015;-56
2022/02/19 05:48:20;;;;;;;18.37;7.83;;;2.60;99.90;;;;;;4197287;28;20737;-61
2022/02/19 05:50:21;;;;;;;14.83;6.30;;;3.00;99.90;;;;;;4210551;28;20330;-49
2022/02/19 05:52:22;;;;;;;16.03;7.60;;;3.20;99.90;;;;;;4211422;28;20337;-67
2022/02/19 05:54:23;;;;;;;12.67;5.80;;;3.60;99.90;;;;;;4191035;28;21131;-49
2022/02/19 05:56:24;;;;;;;9.67;5.83;;;3.90;99.90;;;;;;4209010;28;20357;-58
2022/02/19 05:58:25;;;;;;;17.90;7.93;;;4.20;99.90;;;;;;4208380;28;20299;-62
2022/02/19 06:00:27;;;;;;;10.87;5.67;;;4.50;99.90;;;;;;4206973;28;20298;-68
2022/02/19 06:02:29;;;;;;;17.03;6.60;;;4.70;99.90;;;;;;4207754;28;20272;-51
2022/02/19 06:04:30;;;;;;;14.97;5.00;;;4.80;99.90;;;;;;4207199;28;20367;-46
2022/02/19 06:06:31;;;;;;;9.10;4.53;;;4.80;99.90;;;;;;4187265;28;20799;-61
2022/02/19 06:08:33;;;;;;;7.33;4.17;;;4.90;99.90;;;;;;4208599;28;20265;-45
2022/02/19 06:10:34;;;;;;;11.00;4.33;;;4.80;99.90;;;;;;4206640;28;20269;-49
2022/02/19 06:12:36;;;;;;;12.77;4.90;;;4.70;99.90;;;;;;4207771;28;20260;-66
2022/02/19 06:14:37;;;;;;;16.93;4.90;;;4.60;99.90;;;;;;4207875;28;20302;-60
2022/02/19 06:16:39;;;;;;;16.37;8.27;;;4.60;99.90;;;;;;4208221;28;20242;-65
2022/02/19 06:18:40;;;;;;;22.73;9.97;;;4.60;99.90;;;;;;4207527;28;20261;-51
2022/02/19 06:20:41;;;;;;;27.43;13.83;;;4.30;99.90;;;;;;4208504;28;20434;-59
2022/02/19 06:22:43;;;;;;;37.20;15.80;;;3.80;99.90;;;;;;4234177;22;20300;-51
2022/02/19 06:24:44;;;;;;;50.07;22.73;;;3.40;99.90;;;;;;4147327;28;20307;-53
2022/02/19 06:26:46;;;;;;;46.10;19.77;;;3.30;99.90;;;;;;4166496;28;20327;-64
2022/02/19 06:28:47;;;;;;;44.10;16.87;;;3.10;99.90;;;;;;4173038;28;20253;-60
2022/02/19 06:30:49;;;;;;;45.23;18.43;;;3.10;99.90;;;;;;4150903;28;21180;-69
2022/02/19 06:32:50;;;;;;;42.40;18.87;;;3.20;99.90;;;;;;4157729;28;20819;-64
2022/02/19 06:34:51;;;;;;;49.13;20.37;;;3.30;99.90;;;;;;4157422;28;20293;-44
2022/02/19 06:36:52;;;;;;;40.17;19.83;;;3.30;99.90;;;;;;4159665;28;20336;-57
2022/02/19 06:38:53;;;;;;;41.47;20.43;;;3.40;99.90;;;;;;4174326;28;20270;-67
2022/02/19 06:40:55;;;;;;;43.00;18.60;;;3.50;99.90;;;;;;4174729;28;20273;-51
2022/02/19 06:42:57;;;;;;;37.63;17.83;;;3.50;99.90;;;;;;4174376;28;20339;-54
2022/02/19 06:44:58;;;;;;;36.03;16.63;;;3.50;99.90;;;;;;4159794;28;20769;-51
2022/02/19 06:46:59;;;;;;;47.00;16.50;;;3.50;99.90;;;;;;4175862;28;20262;-54
2022/02/19 06:49:00;;;;;;;45.13;18.47;;;3.50;99.90;;;;;;4174116;28;20274;-63
2022/02/19 06:51:01;;;;;;;38.93;16.00;;;3.50;99.90;;;;;;4174738;28;20262;-67
2022/02/19 06:53:02;;;;;;;36.87;15.03;;;3.40;99.90;;;;;;4176274;28;20296;-55
2022/02/19 06:55:06;;;;;;;37.67;15.77;;;3.70;99.90;;;;;;4173872;28;20278;-68
2022/02/19 06:57:13;;;;;;;42.73;19.83;;;4.00;99.90;;;;;;4173047;28;20769;-49
2022/02/19 06:59:15;;;;;;;34.60;15.37;;;4.20;99.90;;;;;;4163323;28;20340;-55
2022/02/19 07:01:16;;;;;;;30.63;13.43;;;4.30;99.90;;;;;;4175043;28;20676;-53
2022/02/19 07:03:19;;;;;;;32.13;11.67;;;4.30;99.90;;;;;;4175670;28;20274;-64
2022/02/19 07:05:21;;;;;;;25.07;12.43;;;4.30;99.90;;;;;;4176776;28;21333;-58
2022/02/19 07:07:23;;;;;;;33.53;14.33;;;4.60;99.90;;;;;;4178834;28;21000;-75
2022/02/19 07:09:24;;;;;;;31.43;13.57;;;4.80;99.90;;;;;;4175709;28;20356;-52
2022/02/19 07:11:25;;;;;;;26.20;12.40;;;5.00;99.90;;;;;;4175578;28;20274;-67
2022/02/19 07:13:26;;;;;;;28.30;12.53;;;5.20;99.90;;;;;;4177747;28;20400;-60
2022/02/19 07:15:27;;;;;;;28.13;11.37;;;5.40;99.90;;;;;;4176036;28;20292;-51
2022/02/19 07:17:29;;;;;;;25.83;10.50;;;5.60;99.90;;;;;;4177062;28;20277;-80
2022/02/19 07:19:31;;;;;;;15.03;8.33;;;5.70;99.90;;;;;;4175981;28;20332;-54
2022/02/19 07:21:32;;;;;;;22.17;9.70;;;5.90;99.90;;;;;;4176924;28;20323;-66
2022/02/19 07:23:33;;;;;;;23.33;10.47;;;5.60;99.90;;;;;;4177567;28;20273;-75
2022/02/19 07:25:34;;;;;;;25.53;11.37;;;5.30;99.90;;;;;;4175628;28;20294;-77
2022/02/19 07:27:40;;;;;;;20.97;9.47;;;5.00;99.90;;;;;;4172318;28;20254;-65
2022/02/19 07:29:41;;;;;;;34.37;11.77;;;4.80;99.90;;;;;;4161808;28;20290;-91
2022/02/19 07:31:43;;;;;;;22.27;9.20;;;4.60;99.90;;;;;;4163228;28;20271;-80
2022/02/19 07:33:44;;;;;;;23.23;9.63;;;4.50;99.90;;;;;;4158612;28;20829;-64
2022/02/19 07:35:45;;;;;;;19.77;9.67;;;4.50;99.90;;;;;;4159567;28;20282;-67
2022/02/19 07:37:48;;;;;;;23.00;9.93;;;4.30;99.90;;;;;;4158580;28;20328;-65
2022/02/19 07:39:49;;;;;;;21.17;9.50;;;4.20;99.90;;;;;;4159124;28;20266;-79
2022/02/19 07:41:51;;;;;;;24.17;9.30;;;4.20;99.90;;;;;;4158442;28;20710;-70
2022/02/19 07:43:52;;;;;;;26.37;11.23;;;4.20;99.90;;;;;;4158873;28;20719;-63
2022/02/19 07:45:53;;;;;;;26.47;11.13;;;4.20;99.90;;;;;;4157878;28;20302;-62
2022/02/19 07:47:54;;;;;;;26.73;11.37;;;4.20;99.90;;;;;;4165722;28;20270;-58
2022/02/19 07:59:15;;;;;;;20.43;10.07;;;4.30;99.90;;;;;;4173336;28;20339;-72
2022/02/19 08:01:16;;;;;;;34.80;11.47;;;4.20;99.90;;;;;;4173464;28;20274;-63
2022/02/19 08:03:18;;;;;;;25.67;10.10;;;4.10;99.90;;;;;;4173467;28;20739;-53
2022/02/19 08:05:19;;;;;;;21.50;8.63;;;4.00;99.90;;;;;;4173351;28;20393;-60
2022/02/19 08:07:20;;;;;;;18.77;8.23;;;4.00;99.90;;;;;;4173019;28;20266;-59
2022/02/19 08:09:22;;;;;;;19.37;7.87;;;4.00;99.90;;;;;;4174272;28;20270;-62
2022/02/19 08:11:23;;;;;;;17.83;8.90;;;4.10;99.90;;;;;;4172465;28;20270;-64
2022/02/19 08:13:24;;;;;;;23.87;9.43;;;4.20;99.90;;;;;;4174158;28;20274;-70
2022/02/19 08:15:26;;;;;;;28.43;10.00;;;4.20;99.90;;;;;;4173750;28;20254;-59
2022/02/19 08:17:29;;;;;;;22.63;9.23;;;4.20;99.90;;;;;;4248097;22;20298;-69
2022/02/19 08:19:31;;;;;;;27.30;9.03;;;4.20;99.90;;;;;;4159498;28;20329;-56
2022/02/19 08:21:32;;;;;;;24.87;9.53;;;4.10;99.90;;;;;;4178004;28;20348;-65
2022/02/19 08:23:33;;;;;;;20.03;10.20;;;4.10;99.90;;;;;;4178188;28;20262;-66
2022/02/19 08:25:35;;;;;;;20.97;9.60;;;4.10;99.90;;;;;;4179061;28;20290;-59
2022/02/19 08:27:39;;;;;;;24.43;10.27;;;4.10;99.90;;;;;;4177237;28;20258;-62
2022/02/19 08:29:40;;;;;;;19.10;7.07;;;4.10;99.90;;;;;;4163217;28;20746;-59
2022/02/19 08:31:42;;;;;;;13.73;6.67;;;4.20;99.90;;;;;;4160435;28;20279;-58
2022/02/19 08:33:43;;;;;;;16.97;6.93;;;4.30;99.90;;;;;;4162435;28;20274;-65
2022/02/19 08:35:44;;;;;;;12.20;5.80;;;4.40;99.90;;;;;;4176613;28;20274;-68
2022/02/19 08:37:45;;;;;;;16.83;5.80;;;4.50;99.90;;;;;;4177220;28;20254;-64
2022/02/19 08:39:46;;;;;;;21.57;7.53;;;4.60;99.90;;;;;;4177195;28;20265;-69
2022/02/19 08:41:48;;;;;;;15.73;5.30;;;4.70;99.90;;;;;;4174116;28;20266;-66
2022/02/19 08:43:49;;;;;;;9.47;5.27;;;4.70;99.90;;;;;;4176656;28;20278;-57
2022/02/19 08:45:50;;;;;;;20.27;11.03;;;4.80;99.90;;;;;;4176060;28;20348;-51
2022/02/19 08:48:01;;;;;;;17.60;10.57;;;4.80;99.90;;;;;;4176332;28;20273;-53
2022/02/19 08:50:03;;;;;;;;;;;4.80;99.90;;;;;;4177658;28;21128;-79
2022/02/19 08:52:04;;;;;;;18.47;8.77;;;4.90;99.90;;;;;;4176030;28;19908;-60
2022/02/19 08:54:05;;;;;;;17.70;8.67;;;4.90;99.90;;;;;;4158999;28;20278;-73
2022/02/19 08:56:06;;;;;;;21.87;9.30;;;4.90;99.90;;;;;;4176846;28;20352;-54
2022/02/19 08:58:08;;;;;;;17.47;8.50;;;5.10;99.90;;;;;;4170195;28;20327;-72
2022/02/19 09:00:10;;;;;;;26.37;9.50;;;5.10;99.90;;;;;;4163969;28;20329;-70
2022/02/19 09:02:12;;;;;;;22.97;9.03;;;5.10;99.90;;;;;;4177495;28;20753;-62
2022/02/19 09:04:13;;;;;;;20.17;7.70;;;5.10;99.90;;;;;;4178841;28;20258;-52
2022/02/19 09:06:15;;;;;;;17.83;6.97;;;5.10;99.90;;;;;;4153894;28;20295;-80
2022/02/19 09:08:16;;;;;;;21.67;8.60;;;5.10;99.90;;;;;;4160648;28;20274;-55
2022/02/19 09:10:17;;;;;;;28.27;7.80;;;5.10;99.90;;;;;;4161570;28;20259;-81
2022/02/19 09:12:18;;;;;;;19.67;7.87;;;5.20;99.90;;;;;;4143465;28;20894;-54
2022/02/19 09:14:19;;;;;;;20.57;7.57;;;5.20;99.90;;;;;;4163764;28;20401;-52
2022/02/19 09:16:21;;;;;;;17.00;7.73;;;5.20;99.90;;;;;;4164155;28;20290;-63
2022/02/19 09:18:22;;;;;;;19.10;8.07;;;5.30;99.90;;;;;;4170260;28;20340;-63
2022/02/19 09:20:24;;;;;;;19.60;8.57;;;5.40;99.90;;;;;;4178681;28;20280;-64
2022/02/19 09:22:25;;;;;;;19.27;8.53;;;5.40;99.90;;;;;;4170692;28;20278;-80
2022/02/19 09:24:27;;;;;;;22.80;9.17;;;5.50;99.90;;;;;;4160611;28;20372;-67
2022/02/19 09:26:28;;;;;;;20.67;8.87;;;5.60;99.90;;;;;;4173528;28;20347;-69
2022/02/19 09:28:29;;;;;;;19.40;8.70;;;5.70;99.90;;;;;;4176716;28;20270;-57
2022/02/19 09:30:30;;;;;;;22.53;10.67;;;5.70;99.90;;;;;;4177406;28;20270;-66
2022/02/19 09:32:31;;;;;;;24.07;8.67;;;5.80;99.90;;;;;;4176517;28;20335;-69
2022/02/19 09:34:33;;;;;;;27.20;8.60;;;5.80;99.90;;;;;;4175158;28;20270;-77
2022/02/19 09:36:35;;;;;;;22.33;9.40;;;5.70;99.90;;;;;;4178749;28;20262;-78
2022/02/19 09:38:36;;;;;;;20.37;9.00;;;5.70;99.90;;;;;;4177490;28;20254;-65
2022/02/19 09:40:37;;;;;;;25.57;9.77;;;5.60;99.90;;;;;;4166008;28;20305;-53
2022/02/19 09:42:40;;;;;;;24.77;10.67;;;5.60;99.90;;;;;;4160730;28;20321;-65
2022/02/19 09:44:41;;;;;;;28.33;11.83;;;5.70;99.90;;;;;;4159295;28;20298;-62
2022/02/19 09:46:45;;;;;;;39.97;12.93;;;5.80;99.90;;;;;;4161091;28;20271;-67
2022/02/19 09:48:47;;;;;;;35.80;12.03;;;5.80;99.90;;;;;;4164172;28;20620;-55
2022/02/19 09:50:49;;;;;;;28.03;11.93;;;5.80;99.90;;;;;;4162728;28;20291;-53
2022/02/19 09:52:51;;;;;;;36.27;12.17;;;6.00;99.90;;;;;;4163291;28;20037;-75
2022/02/19 09:54:57;;;;;;;31.73;10.60;;;6.00;99.90;;;;;;4163548;28;20332;-77
2022/02/19 09:56:58;;;;;;;26.67;9.80;;;6.00;99.90;;;;;;4161301;28;20262;-60
2022/02/19 09:58:59;;;;;;;27.27;9.57;;;6.00;99.90;;;;;;4160356;28;20278;-46
2022/02/19 10:01:27;;;;;;;39.63;13.40;;;6.10;99.90;;;;;;4161147;28;20654;-84
2022/02/19 10:05:33;;;;;;;41.03;14.63;;;6.20;99.90;;;;;;4157366;28;20303;-47
2022/02/19 10:07:36;;;;;;;32.00;9.97;;;6.20;99.90;;;;;;4162318;28;20408;-68
2022/02/19 10:09:42;;;;;;;42.73;14.27;;;6.20;99.90;;;;;;4170577;28;20033;-65
2022/02/19 10:11:45;;;;;;;38.37;13.13;;;6.10;99.90;;;;;;4161683;28;20067;-62
2022/02/19 10:13:46;;;;;;;40.73;16.00;;;6.00;99.90;;;;;;4165691;28;20341;-76
2022/02/19 10:15:51;;;;;;;37.80;12.33;;;6.00;99.90;;;;;;4167683;28;20041;-66
2022/02/19 10:17:54;;;;;;;44.30;13.60;;;6.10;99.90;;;;;;4172622;28;20339;-67
2022/02/19 10:20:06;;;;;;;33.43;12.67;;;6.20;99.90;;;;;;4161801;28;20373;-57
2022/02/19 10:22:11;;;;;;;36.70;12.80;;;6.30;99.90;;;;;;4175214;28;20406;-61
2022/02/19 10:26:37;;;;;;;53.17;19.00;;;6.60;99.90;;;;;;4181184;22;20103;-54
2022/02/19 10:28:39;;;;;;;38.90;17.10;;;6.70;99.90;;;;;;4173913;28;20273;-64
2022/02/19 10:30:48;;;;;;;49.10;20.73;;;6.80;99.90;;;;;;4175665;28;20332;-74
2022/02/19 10:32:50;;;;;;;36.33;13.57;;;6.90;99.90;;;;;;4175242;28;20110;-73
2022/02/19 10:35:00;;;;;;;29.83;12.60;;;6.90;99.90;;;;;;4176001;28;20621;-59
2022/02/19 10:37:02;;;;;;;50.15;14.95;;;6.90;99.90;;;;;;4172376;28;20037;-51
2022/02/19 10:39:04;;;;;;;40.50;13.70;;;6.90;99.90;;;;;;4176942;28;20060;-56
2022/02/19 10:41:11;;;;;;;47.03;14.53;;;6.90;99.90;;;;;;4175084;28;20037;-49
2022/02/19 10:43:17;;;;;;;50.23;15.27;;;7.00;99.90;;;;;;4176261;28;20037;-65
2022/02/19 10:45:18;;;;;;;58.30;15.83;;;7.00;99.90;;;;;;4172789;28;20033;-61
2022/02/19 10:47:25;;;;;;;44.93;13.63;;;7.20;99.90;;;;;;4163063;28;20489;-59